Flight Track Log - Related Links

Times and Time Zones

All times are in EST time to prevent confusion due to time zone crossing. See the UAL5999 flight status page for this flight to view local times or setup timezone preferences in your user account.

Time Position Orientation Groundspeed Altitude Reporting Facility
EST Latitude Longitude Course Direction KTS MPH feet Rate Location/Type
Thu 02:05:43 PM 41.9333 -87.9833 197° South 184 212 3,200  Level Chicago TRACON
Thu 02:07:36 PM 41.8342 -88.0239 197° South 245 282 6,300 1,817 Climbing Chicago Center
Thu 02:08:38 PM 41.7625 -88.0144 174° South 260 299 8,500 1,887 Climbing Chicago Center
Thu 02:09:40 PM 41.6939 -88.0475 200° South 267 307 10,200 1,839 Climbing Chicago Center
Thu 02:10:42 PM 41.6050 -88.0878 199° South 281 323 12,300 1,597 Climbing Chicago Center
Thu 02:11:44 PM 41.5300 -88.1233 200° South 290 334 13,500 1,016 Climbing Chicago Center
Thu 02:12:46 PM 41.4503 -88.1603 199° South 310 357 14,400 919 Climbing Chicago Center
Thu 02:13:48 PM 41.3675 -88.1969 198° South 321 369 15,400 1,016 Climbing Chicago Center
Thu 02:14:50 PM 41.2628 -88.2453 199° South 336 387 16,500 1,016 Climbing Chicago Center
Thu 02:15:52 PM 41.1747 -88.2853 199° South 338 389 17,500 823 Climbing Chicago Center
Thu 02:16:54 PM 41.0844 -88.3264 199° South 342 394 18,200 823 Climbing Chicago Center
Thu 02:17:56 PM 40.9917 -88.3669 198° South 351 404 19,200 927 Climbing Chicago Center
Thu 02:18:57 PM 40.8981 -88.4086 199° South 355 409 20,100 1,024 Climbing Chicago Center
Thu 02:19:59 PM 40.7831 -88.4606 199° South 363 418 21,300 1,113 Climbing Chicago Center
Thu 02:21:01 PM 40.6872 -88.5028 198° South 365 420 22,400 1,113 Climbing Chicago Center
Thu 02:22:03 PM 40.5928 -88.5450 199° South 361 415 23,600 1,161 Climbing Chicago Center
Thu 02:23:05 PM 40.5064 -88.6003 206° Southwest 347 399 24,800 1,258 Climbing Chicago Center
Thu 02:24:07 PM 40.4331 -88.6897 223° Southwest 331 381 26,200 1,200 Climbing Chicago Center
Thu 02:25:10 PM 40.3658 -88.7672 221° Southwest 324 373 27,300 1,016 Climbing Chicago Center
Thu 02:26:11 PM 40.3000 -88.8456 222° Southwest 320 368 28,300 927 Climbing Chicago Center
Thu 02:27:13 PM 40.2333 -88.9211 221° Southwest 317 365 29,200 919 Climbing Chicago Center
Thu 02:28:15 PM 40.1681 -88.9989 222° Southwest 317 365 30,200 968 Climbing Chicago Center
Thu 02:29:17 PM 40.1008 -89.0767 222° Southwest 321 369 31,200 1,065 Climbing Chicago Center
Thu 02:30:19 PM 40.0208 -89.1672 221° Southwest 318 366 32,400 1,252 Climbing Chicago Center
Thu 02:31:12 PM 39.9672 -89.2314 223° Southwest 317 365 33,600 1,474 Climbing Kansas City Center
Thu 02:32:13 PM 39.9069 -89.3025 222° Southwest 300 345 35,200 1,171 Climbing Kansas City Center
Thu 02:33:15 PM 39.8494 -89.3683 221° Southwest 282 325 36,000 387 Climbing Kansas City Center
Thu 02:34:17 PM 39.7906 -89.4367 222° Southwest 281 323 36,000  Level Kansas City Center
Thu 02:35:19 PM 39.7275 -89.5075 221° Southwest 293 337 36,000  Level Kansas City Center
Thu 02:36:21 PM 39.6531 -89.5936 222° Southwest 314 361 36,000  Level Kansas City Center
Thu 02:37:23 PM 39.5833 -89.6733 221° Southwest 328 377 36,000  Level Kansas City Center
Thu 02:38:25 PM 39.5117 -89.7542 221° Southwest 340 391 36,000  Level Kansas City Center
Thu 02:39:27 PM 39.4264 -89.8514 221° Southwest 340 391 36,000  Level Kansas City Center
Thu 02:40:29 PM 39.3556 -89.9314 221° Southwest 341 392 36,000  Level Kansas City Center
Thu 02:41:30 PM 39.2833 -90.0119 221° Southwest 342 394 36,000  Level Kansas City Center
Thu 02:42:32 PM 39.2114 -90.0922 221° Southwest 342 394 36,000  Level Kansas City Center
Thu 02:43:34 PM 39.1400 -90.1728 221° Southwest 343 395 36,000  Level Kansas City Center
Thu 02:44:36 PM 39.0686 -90.2531 221° Southwest 343 395 36,000  Level Kansas City Center
Thu 02:45:38 PM 38.9836 -90.3481 221° Southwest 340 391 36,000  Level Kansas City Center
Thu 02:46:40 PM 38.9131 -90.4258 221° Southwest 339 390 36,000  Level Kansas City Center
Thu 02:47:42 PM 38.8444 -90.5089 223° Southwest 338 389 36,000  Level Kansas City Center
Thu 02:48:44 PM 38.7939 -90.6158 239° Southwest 350 403 36,000  Level Kansas City Center
Thu 02:49:46 PM 38.7450 -90.7131 237° Southwest 345 397 36,000  Level Kansas City Center
Thu 02:50:48 PM 38.6839 -90.8308 236° Southwest 336 387 36,000  Level Kansas City Center
Thu 02:51:50 PM 38.6336 -90.9300 237° Southwest 335 386 36,000  Level Kansas City Center
Thu 02:52:52 PM 38.5822 -91.0303 237° Southwest 337 388 36,000  Level Kansas City Center
Thu 02:53:54 PM 38.5325 -91.1289 237° Southwest 334 384 36,000  Level Kansas City Center
Thu 02:54:56 PM 38.4817 -91.2267 236° Southwest 332 382 36,000  Level Kansas City Center
Thu 02:55:58 PM 38.4308 -91.3233 236° Southwest 330 380 36,000  Level Kansas City Center
Thu 02:57:00 PM 38.3758 -91.4303 237° Southwest 328 377 36,000  Level Kansas City Center
Thu 02:58:01 PM 38.3247 -91.5272 236° Southwest 329 379 36,000  Level Kansas City Center
Thu 02:59:03 PM 38.2636 -91.6467 237° Southwest 333 383 36,000  Level Kansas City Center
Thu 03:00:05 PM 38.2108 -91.7458 236° Southwest 336 387 36,000  Level Kansas City Center
Thu 03:01:07 PM 38.1581 -91.8450 236° Southwest 336 387 36,000  Level Kansas City Center
Thu 03:02:09 PM 38.1064 -91.9433 236° Southwest 334 384 36,000  Level Kansas City Center
Thu 03:03:11 PM 38.0544 -92.0419 236° Southwest 335 386 36,000  Level Kansas City Center
Thu 03:04:13 PM 38.0000 -92.1447 236° Southwest 333 383 36,000  Level Kansas City Center
Thu 03:05:15 PM 37.9486 -92.2428 236° Southwest 334 384 36,000  Level Kansas City Center
Thu 03:06:17 PM 37.8964 -92.3392 236° Southwest 334 384 36,000  Level Kansas City Center
Thu 03:07:19 PM 37.8444 -92.4347 235° Southwest 332 382 36,000  Level Kansas City Center
Thu 03:08:20 PM 37.7931 -92.5308 236° Southwest 331 381 36,000  Level Kansas City Center
Thu 03:09:22 PM 37.7314 -92.6469 236° Southwest 332 382 36,000  Level Kansas City Center
Thu 03:10:24 PM 37.6794 -92.7447 236° Southwest 334 384 36,000  Level Kansas City Center
Thu 03:11:26 PM 37.6231 -92.8475 235° Southwest 333 383 36,000  Level Kansas City Center
Thu 03:12:28 PM 37.5700 -92.9442 235° Southwest 333 383 36,000  Level Kansas City Center
Thu 03:13:30 PM 37.5169 -93.0408 235° Southwest 334 384 36,000  Level Kansas City Center
Thu 03:14:32 PM 37.4631 -93.1389 235° Southwest 337 388 36,000  Level Kansas City Center
Thu 03:15:34 PM 37.4114 -93.2364 236° Southwest 336 387 36,000 -581 Level Kansas City Center
Thu 03:16:36 PM 37.3575 -93.3306 234° Southwest 331 381 34,800 -1,306 Descending Kansas City Center
Thu 03:17:38 PM 37.3225 -93.4397 248° West 334 384 33,300 -1,355 Descending Kansas City Center
Thu 03:18:40 PM 37.2828 -93.5756 250° West 341 392 32,000 -629 Descending Kansas City Center
Thu 03:19:42 PM 37.2483 -93.6856 249° West 339 390 32,000  Level Kansas City Center
Thu 03:20:44 PM 37.2131 -93.7953 248° West 338 389 32,000  Level Kansas City Center
Thu 03:21:46 PM 37.1778 -93.9067 248° West 340 391 32,000  Level Kansas City Center
Thu 03:22:48 PM 37.1425 -94.0200 249° West 345 397 32,000 -97 Level Kansas City Center
Thu 03:23:50 PM 37.1061 -94.1344 248° West 345 397 31,800 -968 Descending Kansas City Center
Thu 03:24:52 PM 37.0714 -94.2483 249° West 348 400 30,000 -1,742 Descending Kansas City Center
Thu 03:25:54 PM 37.0336 -94.3653 248° West 358 412 28,200 -1,935 Descending Kansas City Center
Thu 03:26:56 PM 36.9878 -94.5097 248° West 369 425 26,000 -1,984 Descending Kansas City Center
Thu 03:27:58 PM 36.9492 -94.6300 248° West 371 427 24,100 -1,790 Descending Kansas City Center
Thu 03:29:00 PM 36.9100 -94.7511 248° West 374 430 22,300 -1,790 Descending Kansas City Center
Thu 03:30:02 PM 36.8717 -94.8717 248° West 375 432 20,400 -1,790 Descending Kansas City Center
Thu 03:31:04 PM 36.8350 -94.9839 248° West 361 415 18,600 -1,694 Descending Kansas City Center
Thu 03:32:06 PM 36.7819 -95.0811 236° Southwest 346 398 16,900 -1,907 Descending Kansas City Center
Thu 03:32:51 PM 36.7203 -95.1558 224° Southwest 344 396 15,200 -2,226 Descending Kansas City Center
Thu 03:33:08 PM 36.6997 -95.1819 226° Southwest 345 397 14,600 -1,770 Descending Kansas City Center
Thu 03:33:52 PM 36.6486 -95.2439 224° Southwest 339 390 13,400 -1,645 Descending Kansas City Center
Thu 03:34:10 PM 36.6333 -95.2625 224° Southwest 337 388 12,900 -1,700 Descending Kansas City Center
Thu 03:34:52 PM 36.5861 -95.3203 225° Southwest 320 368 11,700 -1,548 Descending Kansas City Center
Thu 03:35:12 PM 36.5706 -95.3386 223° Southwest 322 371 11,300 -1,377 Descending Kansas City Center
Thu 03:35:53 PM 36.5217 -95.3969 224° Southwest 317 365 10,300 -765 Descending Kansas City Center
Thu 03:36:54 PM 36.4572 -95.4758 225° Southwest 321 369 10,000 -217 Descending Kansas City Center
Thu 03:37:16 PM 36.4467 -95.4878 222° Southwest 305 351 10,000 -900 Level Kansas City Center
Thu 03:37:54 PM 36.4081 -95.5369 226° Southwest 240 276 9,100 -1,548 Descending Kansas City Center
Thu 03:38:18 PM 36.3886 -95.5581 221° Southwest 258 297 8,400 -1,770 Descending Kansas City Center
Thu 03:38:55 PM 36.3589 -95.5956 225° Southwest 234 269 7,300 -1,645 Descending Kansas City Center
Thu 03:39:20 PM 36.3408 -95.6150 221° Southwest 247 284 6,700 -1,279 Descending Kansas City Center
Thu 03:39:56 PM 36.3111 -95.6511 224° Southwest 240 276 6,000 -1,258 Descending Kansas City Center
Thu 03:40:22 PM 36.2931 -95.6711 222° Southwest 241 277 5,400 -1,400 Descending Kansas City Center
Thu 03:40:56 PM 36.2639 -95.7094 227° Southwest 236 272 4,600 -1,161 Descending Kansas City Center
Thu 03:41:24 PM 36.2456 -95.7289 221° Southwest 239 275 4,200 -590 Descending Kansas City Center
Thu 03:41:57 PM 36.2125 -95.7706 225° Southwest 237 273 4,000 -194 Descending Kansas City Center
Thu 03:42:26 PM 36.1981 -95.7856 220° Southwest 238 274 4,000  Level Kansas City Center
Thu 03:42:57 PM 36.1556 -95.7908 186° South 213 245 4,000  Level Kansas City Center
Thu 03:43:27 PM 36.1289 -95.7919 182° South 217 250 4,000  Level Kansas City Center
Thu 03:43:58 PM 36.0989 -95.7931 182° South 200 230 4,000 -290 Level Kansas City Center
Thu 03:44:29 PM 36.0714 -95.7922 179° South 210 242 3,700 -787 Descending Kansas City Center
Thu 03:44:59 PM 36.0453 -95.8028 198° South 200 230 3,200 -968 Descending Kansas City Center
Thu 03:45:31 PM 36.0217 -95.8186 208° Southwest 207 238 2,700 -700 Descending Kansas City Center
Thu 03:45:59 PM 36.0111 -95.8458 244° Southwest 186 214 2,500 -194 Descending Kansas City Center
Thu 03:46:33 PM 36.0178 -95.8761 285° West 196 226 2,500  Level Kansas City Center
Thu 03:47:00 PM 36.0425 -95.8911 334° Northwest 197 227 2,500  Level Kansas City Center
Thu 03:47:35 PM 36.0706 -95.8914 360° North 204 235 2,500 -98 Level Kansas City Center
Thu 03:48:01 PM 36.0967 -95.8892 North 200 230 2,400 -484 Descending Kansas City Center
Thu 03:48:37 PM 36.1203 -95.8886 North 193 222 2,000 -727 Descending Kansas City Center
Thu 03:49:07 PM 36.1406 -95.8861 North 120 138 1,600 -677 Descending Kansas City Center
Thu 03:49:39 PM 36.1542 -95.8847 North 150 173 1,300 -689 Descending Kansas City Center
Thu 03:50:08 PM 36.1781 -95.8836 North 125 144 900 -581 Descending Kansas City Center
Thu 03:50:41 PM 36.1897 -95.8836 360° North 134 154 700 -364 Descending Kansas City Center

Login

Don't have an account? Register now (free) for customized features, flight alerts, and more!